Time;durP1;ratioP1;P1;durP2;ratioP2;P2;SDS_P1;SDS_P2;PMS_P1;PMS_P2;Temp;Humidity;BMP_temperature;BMP_pressure;BME280_temperature;BME280_humidity;BME280_pressure;Samples;Min_cycle;Max_cycle;Signal;HPM_P1;HPM_P2
2023/07/09 00:00:51;;;;;;;12.70;7.70;;;16.20;99.90;;;;;;5073994;28;20025;-64
2023/07/09 00:03:19;;;;;;;14.98;8.45;;;16.30;99.90;;;;;;5074014;28;20035;-64
2023/07/09 00:05:48;;;;;;;17.25;8.05;;;16.20;99.90;;;;;;5056408;28;20420;-64
2023/07/09 00:08:27;;;;;;;13.63;8.55;;;16.20;99.90;;;;;;5074148;28;20035;-64
2023/07/09 00:10:56;;;;;;;12.63;7.65;;;16.20;99.90;;;;;;5074076;28;20445;-64
2023/07/09 00:13:23;;;;;;;11.25;7.90;;;16.20;99.90;;;;;;5074041;28;20047;-63
2023/07/09 00:15:50;;;;;;;13.65;8.25;;;16.10;99.90;;;;;;5056102;28;20033;-64
2023/07/09 00:18:16;;;;;;;13.32;7.30;;;16.10;99.90;;;;;;5074187;28;20031;-64
2023/07/09 00:20:43;;;;;;;12.02;8.30;;;16.00;99.90;;;;;;5074102;28;20024;-64
2023/07/09 00:23:13;;;;;;;11.80;7.40;;;16.00;99.90;;;;;;5073859;28;20028;-64
2023/07/09 00:25:45;;;;;;;10.50;7.53;;;15.90;99.90;;;;;;5074055;28;20040;-64
2023/07/09 00:28:15;;;;;;;11.02;7.68;;;15.90;99.90;;;;;;5073991;28;20039;-64
2023/07/09 00:30:41;;;;;;;15.52;8.15;;;15.90;99.90;;;;;;5076920;28;20382;-64
2023/07/09 00:33:15;;;;;;;13.65;7.93;;;15.90;99.90;;;;;;5060022;28;20043;-64
2023/07/09 00:35:42;;;;;;;14.23;8.30;;;15.90;99.90;;;;;;5059796;28;20474;-64
2023/07/09 00:38:23;;;;;;;13.13;7.65;;;15.90;99.90;;;;;;5059753;28;20040;-64
2023/07/09 00:41:01;;;;;;;15.90;8.23;;;15.80;99.90;;;;;;5059635;28;20378;-64
2023/07/09 00:43:37;;;;;;;11.75;7.63;;;15.80;99.90;;;;;;5077766;28;20028;-64
2023/07/09 00:46:27;;;;;;;14.20;6.95;;;15.80;99.90;;;;;;5059515;28;20121;-64
2023/07/09 00:48:59;;;;;;;10.93;7.97;;;15.70;99.90;;;;;;5077408;28;20115;-64
2023/07/09 00:51:27;;;;;;;10.50;7.40;;;15.70;99.90;;;;;;5077524;28;20473;-64
2023/07/09 00:53:58;;;;;;;12.00;7.20;;;15.70;99.90;;;;;;5077514;28;20525;-64
2023/07/09 00:56:29;;;;;;;11.20;7.32;;;15.70;99.90;;;;;;5061907;28;20025;-64
2023/07/09 00:58:57;;;;;;;12.18;7.63;;;15.70;99.90;;;;;;5039656;28;20074;-64
2023/07/09 01:01:24;;;;;;;10.88;7.15;;;15.70;99.90;;;;;;5057219;28;20028;-64
2023/07/09 01:03:56;;;;;;;11.57;7.00;;;15.70;99.90;;;;;;5057384;28;20068;-64
2023/07/09 01:06:30;;;;;;;10.68;7.07;;;15.70;99.90;;;;;;5039327;28;20390;-64
2023/07/09 01:08:56;;;;;;;10.77;7.60;;;15.70;99.90;;;;;;5039131;28;20075;-64
2023/07/09 01:11:22;;;;;;;12.43;7.30;;;15.60;99.90;;;;;;5057151;28;20029;-64
2023/07/09 01:13:51;;;;;;;11.73;7.43;;;15.50;99.90;;;;;;5039213;28;20609;-64
2023/07/09 01:16:19;;;;;;;11.98;7.63;;;15.60;99.90;;;;;;5039237;28;20075;-64
2023/07/09 01:18:44;;;;;;;11.48;8.07;;;15.50;99.90;;;;;;5039138;28;20452;-64
2023/07/09 01:21:17;;;;;;;10.43;7.22;;;15.50;99.90;;;;;;5039158;28;20037;-64
2023/07/09 01:23:44;;;;;;;11.75;6.95;;;15.50;99.90;;;;;;5056973;28;20402;-64
2023/07/09 01:26:12;;;;;;;9.85;6.93;;;15.60;99.90;;;;;;5056932;28;20021;-64
2023/07/09 01:28:41;;;;;;;13.05;7.75;;;15.50;99.90;;;;;;5056634;28;20029;-64
2023/07/09 01:31:08;;;;;;;11.32;7.75;;;15.50;99.90;;;;;;5038851;28;20035;-64
2023/07/09 01:33:39;;;;;;;14.70;7.35;;;15.40;99.90;;;;;;5039282;28;20024;-64
2023/07/09 01:36:09;;;;;;;9.80;7.13;;;15.50;99.90;;;;;;5056634;28;20382;-64
2023/07/09 01:38:35;;;;;;;10.45;7.07;;;15.40;99.90;;;;;;5022353;28;20444;-64
2023/07/09 01:41:03;;;;;;;13.35;7.78;;;15.40;99.90;;;;;;5056220;28;20039;-64
2023/07/09 01:43:32;;;;;;;12.55;7.32;;;15.40;99.90;;;;;;5056664;28;20025;-64
2023/07/09 01:45:58;;;;;;;11.32;7.22;;;15.40;99.90;;;;;;5056629;28;20032;-64
2023/07/09 01:48:27;;;;;;;12.90;7.63;;;15.40;99.90;;;;;;5056380;28;20028;-64
2023/07/09 01:50:54;;;;;;;13.35;7.20;;;15.40;99.90;;;;;;5038472;28;20448;-64
2023/07/09 01:53:24;;;;;;;10.32;7.72;;;15.30;99.90;;;;;;5056416;28;20084;-64
2023/07/09 01:55:51;;;;;;;13.43;7.28;;;15.30;99.90;;;;;;5048765;28;20036;-64
2023/07/09 01:58:17;;;;;;;11.25;7.05;;;15.30;99.90;;;;;;5058199;28;20049;-64
2023/07/09 02:00:44;;;;;;;13.73;6.85;;;15.30;99.90;;;;;;5058049;28;20033;-64
2023/07/09 02:03:11;;;;;;;13.57;7.82;;;15.40;99.90;;;;;;5075983;28;20117;-64
2023/07/09 02:05:37;;;;;;;10.07;7.22;;;15.40;99.90;;;;;;5058079;28;20031;-64
2023/07/09 02:08:04;;;;;;;10.15;7.40;;;15.40;99.90;;;;;;5041339;28;20033;-64
2023/07/09 02:10:30;;;;;;;13.20;7.50;;;15.40;99.90;;;;;;5075851;28;20033;-64
2023/07/09 02:12:56;;;;;;;10.27;7.35;;;15.40;99.90;;;;;;5075959;28;20036;-64
2023/07/09 02:15:22;;;;;;;13.05;7.22;;;15.40;99.90;;;;;;5057965;28;20078;-64
2023/07/09 02:17:49;;;;;;;10.95;7.47;;;15.30;99.90;;;;;;5057895;28;20032;-64
2023/07/09 02:20:15;;;;;;;10.90;7.47;;;15.20;99.90;;;;;;5057926;28;20428;-64
2023/07/09 02:22:42;;;;;;;11.35;7.72;;;15.20;99.90;;;;;;5075547;28;20390;-64
2023/07/09 02:25:08;;;;;;;16.15;8.50;;;15.20;99.90;;;;;;5057590;28;20028;-64
2023/07/09 02:27:36;;;;;;;16.65;8.70;;;15.10;99.90;;;;;;5075709;28;20060;-64
2023/07/09 02:30:02;;;;;;;13.15;8.30;;;15.10;99.90;;;;;;5075760;28;20104;-64
2023/07/09 02:32:28;;;;;;;11.95;8.15;;;15.10;99.90;;;;;;5057572;28;20078;-64
2023/07/09 02:34:55;;;;;;;12.65;8.80;;;15.10;99.90;;;;;;5075598;28;20025;-64
2023/07/09 02:37:24;;;;;;;16.23;9.02;;;15.10;99.90;;;;;;5057692;28;20512;-64
2023/07/09 02:39:50;;;;;;;12.45;9.93;;;15.00;99.90;;;;;;5075402;28;20474;-64
2023/07/09 02:42:19;;;;;;;13.45;9.13;;;15.10;99.90;;;;;;5075502;28;20021;-64
2023/07/09 02:44:46;;;;;;;14.23;8.18;;;15.00;99.90;;;;;;5057344;28;20029;-64
2023/07/09 02:47:13;;;;;;;9.30;7.30;;;15.00;99.90;;;;;;5075369;28;20071;-64
2023/07/09 02:49:39;;;;;;;12.77;7.70;;;15.00;99.90;;;;;;5057369;28;20031;-64
2023/07/09 02:52:06;;;;;;;12.25;7.45;;;15.00;99.90;;;;;;5074689;28;20408;-64
2023/07/09 02:54:32;;;;;;;15.18;7.78;;;14.90;99.90;;;;;;5075149;28;20037;-64
2023/07/09 02:56:58;;;;;;;12.00;7.20;;;14.90;99.90;;;;;;5055108;28;20041;-64
2023/07/09 02:59:26;;;;;;;11.40;7.85;;;14.90;99.90;;;;;;5037239;28;20029;-64
2023/07/09 03:01:52;;;;;;;13.52;7.13;;;14.80;99.90;;;;;;5037088;28;20029;-64
2023/07/09 03:04:20;;;;;;;13.63;8.23;;;14.80;99.90;;;;;;5037185;28;20025;-64
2023/07/09 03:06:46;;;;;;;11.27;7.30;;;14.80;99.90;;;;;;5036981;28;20032;-64
2023/07/09 03:09:12;;;;;;;13.75;7.05;;;14.80;99.90;;;;;;5037033;28;20384;-64
2023/07/09 03:11:38;;;;;;;12.88;7.82;;;14.70;99.90;;;;;;5036889;28;20036;-65
2023/07/09 03:14:04;;;;;;;12.65;7.75;;;14.80;99.90;;;;;;5036775;28;20029;-65
2023/07/09 03:16:32;;;;;;;11.52;7.40;;;14.70;99.90;;;;;;5036861;28;20481;-64
2023/07/09 03:18:59;;;;;;;16.67;7.78;;;14.70;99.90;;;;;;5054835;28;20059;-65
2023/07/09 03:21:26;;;;;;;12.45;7.53;;;14.80;99.90;;;;;;5054648;28;20604;-65
2023/07/09 03:23:53;;;;;;;14.80;7.72;;;14.70;99.90;;;;;;5036854;28;20024;-65
2023/07/09 03:26:20;;;;;;;13.25;7.93;;;14.80;99.90;;;;;;5036768;28;20458;-65
2023/07/09 03:28:46;;;;;;;11.50;7.22;;;14.70;99.90;;;;;;5036596;28;20029;-64
2023/07/09 03:31:12;;;;;;;11.82;7.22;;;14.80;99.90;;;;;;5036865;28;20112;-65
2023/07/09 03:33:38;;;;;;;10.77;7.57;;;14.70;99.90;;;;;;5054508;28;20474;-65
2023/07/09 03:36:04;;;;;;;14.63;7.53;;;14.70;99.90;;;;;;5036590;28;20025;-65
2023/07/09 03:38:31;;;;;;;11.52;7.90;;;14.70;99.90;;;;;;5054553;28;20025;-64
2023/07/09 03:40:57;;;;;;;10.90;7.38;;;14.70;99.90;;;;;;5054475;28;20471;-64
2023/07/09 03:43:24;;;;;;;11.43;7.47;;;14.80;99.90;;;;;;5054438;28;20033;-65
2023/07/09 03:45:50;;;;;;;12.75;7.28;;;14.80;99.90;;;;;;5054510;28;20037;-65
2023/07/09 03:48:18;;;;;;;10.50;7.07;;;14.80;99.90;;;;;;5036430;28;20467;-64
2023/07/09 03:50:45;;;;;;;14.52;7.65;;;14.90;99.90;;;;;;5054395;28;20025;-64
2023/07/09 03:53:12;;;;;;;13.18;7.47;;;14.90;99.90;;;;;;5054452;28;20033;-64
2023/07/09 03:55:38;;;;;;;16.52;7.55;;;14.90;99.90;;;;;;5045251;28;20522;-65
2023/07/09 03:58:05;;;;;;;11.50;7.38;;;14.90;99.90;;;;;;5074415;28;20168;-65
2023/07/09 04:00:32;;;;;;;12.55;7.85;;;14.90;99.90;;;;;;5074370;28;20067;-64
2023/07/09 04:02:58;;;;;;;14.65;7.63;;;14.90;99.90;;;;;;5074308;28;20117;-64
2023/07/09 04:05:25;;;;;;;11.52;7.10;;;15.00;99.90;;;;;;5078473;28;20024;-64
2023/07/09 04:07:51;;;;;;;13.63;7.65;;;15.00;99.90;;;;;;5060414;28;20035;-64
2023/07/09 04:10:17;;;;;;;16.42;7.82;;;15.10;99.90;;;;;;5078332;28;20017;-64
2023/07/09 04:12:44;;;;;;;10.02;6.97;;;15.10;99.90;;;;;;5078346;28;20142;-64
2023/07/09 04:15:12;;;;;;;12.52;8.60;;;15.10;99.90;;;;;;5078298;28;20025;-64
2023/07/09 04:17:39;;;;;;;15.68;7.43;;;15.20;99.90;;;;;;5078163;28;20036;-65
2023/07/09 04:20:07;;;;;;;15.73;7.88;;;15.30;99.90;;;;;;5060072;28;20048;-65
2023/07/09 04:22:34;;;;;;;14.18;8.10;;;15.30;99.90;;;;;;5078037;28;20029;-65
2023/07/09 04:25:02;;;;;;;16.48;8.38;;;15.40;99.90;;;;;;5059959;28;20042;-64
2023/07/09 04:27:28;;;;;;;12.38;7.45;;;15.40;99.90;;;;;;5077989;28;20025;-64
2023/07/09 04:29:54;;;;;;;15.82;7.55;;;15.50;99.90;;;;;;5077858;28;20021;-64
2023/07/09 04:32:21;;;;;;;12.13;7.45;;;15.50;99.90;;;;;;5060029;28;20435;-64
2023/07/09 04:34:47;;;;;;;18.20;8.23;;;15.60;99.90;;;;;;5077798;28;20096;-64
2023/07/09 04:37:13;;;;;;;13.93;8.25;;;15.70;99.90;;;;;;5077770;28;20369;-65
2023/07/09 04:39:39;;;;;;;15.05;8.95;;;15.80;99.90;;;;;;5077724;28;20040;-64
2023/07/09 04:42:09;;;;;;;18.52;9.15;;;15.90;99.90;;;;;;5059875;28;20063;-64
2023/07/09 04:44:35;;;;;;;17.33;8.70;;;15.90;99.90;;;;;;5059868;28;20039;-64
2023/07/09 04:47:01;;;;;;;17.40;9.25;;;16.00;99.90;;;;;;5077422;28;20033;-64
2023/07/09 04:49:27;;;;;;;15.32;8.40;;;16.10;99.90;;;;;;5077634;28;20031;-64
2023/07/09 04:51:52;;;;;;;23.13;9.40;;;16.20;99.90;;;;;;5077501;28;20116;-64
2023/07/09 04:54:18;;;;;;;16.88;8.80;;;16.30;99.90;;;;;;5077448;28;20381;-64
2023/07/09 04:56:44;;;;;;;20.65;9.15;;;16.30;99.90;;;;;;5059211;28;20049;-64
2023/07/09 04:59:11;;;;;;;19.98;9.40;;;16.40;99.90;;;;;;5057294;28;20368;-64
2023/07/09 05:01:37;;;;;;;23.30;8.38;;;16.50;99.90;;;;;;5039592;28;20032;-64
2023/07/09 05:04:03;;;;;;;17.80;8.55;;;16.60;99.90;;;;;;5057366;28;20119;-65
2023/07/09 05:06:29;;;;;;;14.93;8.68;;;16.60;99.90;;;;;;5057293;28;20055;-64
2023/07/09 05:08:55;;;;;;;21.38;9.05;;;16.70;99.90;;;;;;5057151;28;20021;-65
2023/07/09 05:11:21;;;;;;;21.20;9.43;;;16.70;99.90;;;;;;5057021;28;20025;-64
2023/07/09 05:13:47;;;;;;;15.57;9.40;;;16.90;99.90;;;;;;5057139;28;20025;-64
2023/07/09 05:16:13;;;;;;;20.50;9.40;;;17.00;99.90;;;;;;5038533;28;20059;-64
2023/07/09 05:18:39;;;;;;;18.42;10.73;;;17.10;99.90;;;;;;5057036;28;20040;-65
2023/07/09 05:21:05;;;;;;;29.98;18.58;;;17.10;99.90;;;;;;5057041;28;20466;-64
2023/07/09 05:23:31;;;;;;;21.17;14.18;;;17.00;99.90;;;;;;5039186;28;20037;-64
2023/07/09 05:25:58;;;;;;;25.35;12.90;;;17.30;99.90;;;;;;5056823;28;20095;-64
2023/07/09 05:28:24;;;;;;;20.08;11.73;;;17.40;99.90;;;;;;5056710;28;20025;-64
2023/07/09 05:30:50;;;;;;;17.83;9.93;;;17.50;99.90;;;;;;5038991;28;20033;-65
2023/07/09 05:33:18;;;;;;;23.92;11.25;;;17.60;99.90;;;;;;5056806;28;20478;-64
2023/07/09 05:35:45;;;;;;;19.08;11.02;;;17.80;99.90;;;;;;5056655;28;20066;-65
2023/07/09 05:38:14;;;;;;;23.10;10.15;;;17.80;99.90;;;;;;5056680;28;20021;-65
2023/07/09 05:40:41;;;;;;;24.42;10.90;;;18.00;99.90;;;;;;5038683;28;20025;-64
2023/07/09 05:43:08;;;;;;;19.80;10.45;;;18.00;99.90;;;;;;5056649;28;20025;-64
2023/07/09 05:45:33;;;;;;;14.98;10.10;;;18.10;99.90;;;;;;5056475;28;20406;-64
2023/07/09 05:48:00;;;;;;;16.02;9.82;;;18.20;99.90;;;;;;5056689;28;20115;-64
2023/07/09 05:50:26;;;;;;;13.55;9.25;;;18.30;99.90;;;;;;5056471;28;20486;-64
2023/07/09 05:52:52;;;;;;;15.85;9.07;;;18.40;99.90;;;;;;5056562;28;20116;-64
2023/07/09 05:55:18;;;;;;;12.95;8.35;;;18.50;99.90;;;;;;5062363;28;20056;-64
2023/07/09 05:57:44;;;;;;;22.27;9.77;;;18.70;99.90;;;;;;5076251;28;20048;-65
2023/07/09 06:00:11;;;;;;;16.40;9.20;;;18.90;99.90;;;;;;5076217;28;20033;-64
2023/07/09 06:02:40;;;;;;;23.23;9.83;;;19.00;99.90;;;;;;5076290;28;20123;-65
2023/07/09 06:05:09;;;;;;;16.25;9.35;;;19.20;99.90;;;;;;5076278;28;20068;-65
2023/07/09 06:07:35;;;;;;;16.33;9.82;;;19.30;99.90;;;;;;5075979;28;20028;-65
2023/07/09 06:10:01;;;;;;;16.83;9.35;;;19.40;99.90;;;;;;5075966;28;20056;-65
2023/07/09 06:12:27;;;;;;;15.60;9.02;;;19.50;99.90;;;;;;5058211;28;20056;-65
2023/07/09 06:14:53;;;;;;;18.25;8.93;;;19.70;99.90;;;;;;5076061;28;20033;-64
2023/07/09 06:17:18;;;;;;;17.50;8.52;;;19.80;99.90;;;;;;5075884;28;20291;-64
2023/07/09 06:19:45;;;;;;;16.38;8.63;;;19.90;99.90;;;;;;5076022;28;20035;-64
2023/07/09 06:22:11;;;;;;;14.88;8.13;;;20.10;99.90;;;;;;5075922;28;20488;-64
2023/07/09 06:24:36;;;;;;;17.83;8.70;;;20.20;99.90;;;;;;5075670;28;20039;-65
2023/07/09 06:27:02;;;;;;;14.60;9.00;;;20.30;99.90;;;;;;5074641;28;20405;-64
2023/07/09 06:29:28;;;;;;;14.77;8.70;;;20.40;99.90;;;;;;5075758;28;20103;-65
2023/07/09 06:31:54;;;;;;;16.35;9.68;;;20.60;99.90;;;;;;5075625;28;20438;-65
2023/07/09 06:34:20;;;;;;;12.45;8.57;;;20.70;99.90;;;;;;5075674;28;20367;-64
2023/07/09 06:36:46;;;;;;;15.70;8.88;;;20.60;99.90;;;;;;5075485;28;20028;-64
2023/07/09 06:39:12;;;;;;;15.45;8.77;;;20.90;99.90;;;;;;5075512;28;20043;-65
2023/07/09 06:41:38;;;;;;;16.38;8.30;;;21.00;99.90;;;;;;5057574;28;20036;-65
2023/07/09 06:44:06;;;;;;;13.38;7.85;;;21.20;99.90;;;;;;5057567;28;20032;-65
2023/07/09 06:46:33;;;;;;;13.82;7.72;;;21.30;99.90;;;;;;5075368;28;20024;-65
2023/07/09 06:48:59;;;;;;;9.68;6.93;;;21.50;99.90;;;;;;5075277;28;20086;-65
2023/07/09 06:51:25;;;;;;;12.40;7.07;;;21.60;99.90;;;;;;5075207;28;20085;-65
2023/07/09 06:53:51;;;;;;;13.73;7.25;;;21.80;99.80;;;;;;5075247;28;20529;-65
2023/07/09 06:56:17;;;;;;;12.00;7.57;;;22.00;98.00;;;;;;5061094;28;20112;-65
2023/07/09 06:58:45;;;;;;;9.95;7.00;;;22.20;98.90;;;;;;5037160;28;20056;-65
2023/07/09 07:01:12;;;;;;;12.40;7.70;;;22.40;98.40;;;;;;5055070;28;20037;-65
2023/07/09 07:03:38;;;;;;;12.80;7.05;;;22.60;97.30;;;;;;5055003;28;20024;-65
2023/07/09 07:06:06;;;;;;;12.50;7.53;;;22.70;97.60;;;;;;5036937;28;20033;-65
2023/07/09 07:08:32;;;;;;;11.05;7.22;;;23.00;96.80;;;;;;5055044;28;20108;-65
2023/07/09 07:11:04;;;;;;;13.18;7.18;;;23.30;96.60;;;;;;5054828;28;20020;-65
2023/07/09 07:13:31;;;;;;;13.20;7.65;;;23.50;94.00;;;;;;5054902;28;20474;-65
2023/07/09 07:15:58;;;;;;;14.70;7.90;;;23.80;94.60;;;;;;5054902;28;20048;-65
2023/07/09 07:18:24;;;;;;;14.82;8.05;;;24.10;93.80;;;;;;5054735;28;20147;-65
2023/07/09 07:20:50;;;;;;;14.63;7.18;;;24.40;93.50;;;;;;5054950;28;20448;-65
2023/07/09 07:23:17;;;;;;;11.95;7.70;;;24.60;92.20;;;;;;5054901;28;20029;-65
2023/07/09 07:25:44;;;;;;;9.35;6.72;;;24.80;91.90;;;;;;5054599;28;20029;-65
2023/07/09 07:28:10;;;;;;;10.23;6.95;;;25.20;92.20;;;;;;5054654;28;20058;-65
2023/07/09 07:30:36;;;;;;;10.25;6.30;;;25.10;90.20;;;;;;5036693;28;20032;-65
2023/07/09 07:33:02;;;;;;;13.18;6.45;;;25.50;87.40;;;;;;5054568;28;20021;-65
2023/07/09 07:35:28;;;;;;;11.52;5.82;;;25.80;84.60;;;;;;5054675;28;20021;-65
2023/07/09 07:37:54;;;;;;;10.30;6.85;;;26.10;80.70;;;;;;5036321;28;20037;-65
2023/07/09 07:40:21;;;;;;;9.93;6.57;;;26.40;78.90;;;;;;5054413;28;20493;-65
2023/07/09 07:42:47;;;;;;;12.25;7.07;;;25.90;77.80;;;;;;5054512;28;20032;-65
2023/07/09 07:45:13;;;;;;;17.35;6.43;;;26.30;76.60;;;;;;5054538;28;20036;-65
2023/07/09 07:47:39;;;;;;;14.70;6.53;;;26.90;75.00;;;;;;5054295;28;20501;-65
2023/07/09 07:50:07;;;;;;;8.30;6.35;;;27.20;75.50;;;;;;5054359;28;20488;-66
2023/07/09 07:52:37;;;;;;;12.88;6.65;;;27.60;74.80;;;;;;5054333;28;20241;-65
2023/07/09 07:55:11;;;;;;;9.32;6.28;;;27.90;72.70;;;;;;5058227;28;20063;-65
2023/07/09 07:57:37;;;;;;;12.73;6.47;;;27.70;71.30;;;;;;5074142;28;20060;-65
2023/07/09 08:00:05;;;;;;;11.00;6.43;;;28.00;67.60;;;;;;5074354;28;20044;-65
2023/07/09 08:02:38;;;;;;;10.07;6.40;;;28.40;65.60;;;;;;5074325;28;20383;-65
2023/07/09 08:05:05;;;;;;;10.45;6.55;;;28.80;61.10;;;;;;5074353;28;20032;-65
2023/07/09 08:07:31;;;;;;;9.93;6.35;;;29.00;63.50;;;;;;5074236;28;20036;-65
2023/07/09 08:09:57;;;;;;;10.10;6.50;;;29.20;60.70;;;;;;5056261;28;20024;-65
2023/07/09 08:12:22;;;;;;;14.85;6.18;;;29.30;57.80;;;;;;5074502;28;20373;-65
2023/07/09 08:14:48;;;;;;;8.48;5.68;;;29.70;57.50;;;;;;5056162;28;20037;-65
2023/07/09 08:17:14;;;;;;;20.17;6.40;;;30.00;56.10;;;;;;5056497;28;20119;-65
2023/07/09 08:19:49;;;;;;;8.88;6.22;;;29.50;59.00;;;;;;5056144;28;20036;-66
2023/07/09 08:22:15;;;;;;;9.57;6.47;;;29.80;58.20;;;;;;5056093;28;20029;-65
2023/07/09 08:24:42;;;;;;;12.02;6.70;;;29.60;57.30;;;;;;5074161;28;20113;-65
2023/07/09 08:27:09;;;;;;;11.80;6.18;;;29.80;57.50;;;;;;5073984;28;20025;-65
2023/07/09 08:29:35;;;;;;;10.27;6.60;;;30.10;56.40;;;;;;5055888;28;20333;-65
2023/07/09 08:32:02;;;;;;;13.05;5.93;;;30.40;56.70;;;;;;5074100;28;20386;-65
2023/07/09 08:34:28;;;;;;;11.57;6.82;;;31.00;57.40;;;;;;5074047;28;20458;-65
2023/07/09 08:36:54;;;;;;;9.60;6.28;;;31.00;51.00;;;;;;5073787;28;20036;-65
2023/07/09 08:39:20;;;;;;;11.52;5.97;;;30.90;50.10;;;;;;5074002;28;20042;-65
2023/07/09 08:41:53;;;;;;;10.15;6.85;;;31.00;52.70;;;;;;5056093;28;20096;-65
2023/07/09 08:44:48;;;;;;;9.57;5.63;;;31.30;51.00;;;;;;5073831;28;20035;-65
2023/07/09 08:47:46;;;;;;;11.30;6.15;;;31.50;51.50;;;;;;5073817;28;20029;-65
2023/07/09 08:50:23;;;;;;;8.30;6.45;;;31.40;51.10;;;;;;5056281;28;20033;-65
2023/07/09 08:52:52;;;;;;;9.73;5.50;;;31.90;49.10;;;;;;5077526;28;20052;-65
2023/07/09 08:55:22;;;;;;;8.45;5.68;;;32.20;50.10;;;;;;5071384;28;20095;-65
2023/07/09 08:58:09;;;;;;;9.95;5.72;;;32.60;49.30;;;;;;5057271;28;20084;-65
2023/07/09 09:01:03;;;;;;;10.55;5.88;;;32.60;48.80;;;;;;5057337;28;20386;-65
2023/07/09 09:03:51;;;;;;;8.63;5.50;;;33.00;47.70;;;;;;5057462;28;20669;-65
2023/07/09 09:06:22;;;;;;;15.25;6.53;;;32.80;47.20;;;;;;5057293;28;20394;-65
2023/07/09 09:08:48;;;;;;;10.85;6.13;;;33.00;46.60;;;;;;5057244;28;20438;-65
2023/07/09 09:11:50;;;;;;;6.88;5.07;;;33.30;47.80;;;;;;5056987;28;20028;-65
2023/07/09 09:14:18;;;;;;;7.93;5.40;;;33.60;42.70;;;;;;5035415;28;20048;-65
2023/07/09 09:16:46;;;;;;;11.88;4.88;;;33.20;41.20;;;;;;5039243;28;20037;-65
2023/07/09 09:19:37;;;;;;;11.77;5.30;;;33.60;41.10;;;;;;5057103;28;20036;-65
2023/07/09 09:22:13;;;;;;;8.25;5.05;;;33.90;43.90;;;;;;5039354;28;20033;-65
2023/07/09 09:25:00;;;;;;;6.68;4.90;;;33.80;42.00;;;;;;5056927;28;20028;-65
2023/07/09 09:27:26;;;;;;;8.13;5.20;;;34.00;42.20;;;;;;5056914;28;20028;-65
2023/07/09 09:29:52;;;;;;;6.45;4.22;;;34.20;40.70;;;;;;5056808;28;20025;-65
2023/07/09 09:32:22;;;;;;;6.93;4.43;;;34.50;39.10;;;;;;5039069;28;20033;-66
2023/07/09 09:34:48;;;;;;;6.97;4.53;;;34.50;40.50;;;;;;5056884;28;20083;-65
2023/07/09 09:37:31;;;;;;;7.80;4.53;;;34.30;38.60;;;;;;5056713;28;20033;-65
2023/07/09 09:39:59;;;;;;;6.15;4.47;;;34.20;38.20;;;;;;5038960;28;20105;-65
2023/07/09 09:42:25;;;;;;;5.43;4.20;;;33.60;37.40;;;;;;5056533;28;20023;-65
2023/07/09 09:44:55;;;;;;;7.20;4.40;;;33.10;37.40;;;;;;5056622;28;20036;-65
2023/07/09 09:47:21;;;;;;;10.15;4.90;;;32.50;37.40;;;;;;5056353;28;20024;-65
2023/07/09 09:49:47;;;;;;;7.80;5.35;;;32.20;37.30;;;;;;5056466;28;20025;-65
2023/07/09 09:52:15;;;;;;;8.27;4.75;;;31.80;39.50;;;;;;5056491;28;20036;-65
2023/07/09 09:54:52;;;;;;;7.15;4.68;;;31.50;39.20;;;;;;5057189;28;20029;-65
2023/07/09 09:57:22;;;;;;;7.40;4.70;;;31.40;45.00;;;;;;5076302;28;20045;-65
2023/07/09 09:59:49;;;;;;;7.45;4.75;;;31.70;41.10;;;;;;5076355;28;20481;-65
2023/07/09 10:02:21;;;;;;;8.45;4.95;;;31.50;42.40;;;;;;5058106;28;20032;-65
2023/07/09 10:04:47;;;;;;;8.07;4.60;;;31.30;45.90;;;;;;5076246;28;20458;-65
2023/07/09 10:07:22;;;;;;;8.35;5.38;;;31.00;44.20;;;;;;5076011;28;20136;-65
2023/07/09 10:09:52;;;;;;;7.10;4.82;;;30.70;45.80;;;;;;5076133;28;20024;-65
2023/07/09 10:12:35;;;;;;;11.83;5.20;;;30.30;48.60;;;;;;5076103;28;20024;-65
2023/07/09 10:15:17;;;;;;;11.85;5.70;;;29.60;53.70;;;;;;5076075;28;20273;-64
2023/07/09 10:18:17;;;;;;;7.18;5.40;;;29.70;50.20;;;;;;5075843;28;20037;-65
2023/07/09 10:20:51;;;;;;;10.63;4.88;;;29.90;51.30;;;;;;5075870;28;20466;-65
2023/07/09 10:23:27;;;;;;;7.72;5.32;;;30.00;43.70;;;;;;5075781;28;20036;-65
2023/07/09 10:26:01;;;;;;;9.13;5.25;;;30.70;45.70;;;;;;5075821;28;20024;-64
2023/07/09 10:28:43;;;;;;;6.30;4.78;;;31.30;46.80;;;;;;5075679;28;20113;-64
2023/07/09 10:31:48;;;;;;;6.72;4.88;;;32.00;43.20;;;;;;5075706;28;20020;-64
2023/07/09 10:34:52;;;;;;;10.80;4.75;;;32.60;41.60;;;;;;5071216;28;20029;-64
2023/07/09 10:38:03;;;;;;;7.57;4.80;;;33.10;36.50;;;;;;4974374;28;20110;-64
2023/07/09 10:40:43;;;;;;;;;;;33.50;37.20;;;;;;4971238;28;20154;-64
2023/07/09 10:43:16;;;;;;;16.75;5.28;;;33.90;36.10;;;;;;4974288;28;19910;-64
2023/07/09 10:45:47;;;;;;;7.10;4.88;;;34.50;38.50;;;;;;4974243;28;20039;-65
2023/07/09 10:48:31;;;;;;;4.95;4.40;;;34.70;37.50;;;;;;4958012;28;20105;-64
2023/07/09 10:50:57;;;;;;;7.60;5.28;;;34.60;36.20;;;;;;4974197;28;20038;-64
2023/07/09 10:53:46;;;;;;;8.25;5.35;;;33.80;34.90;;;;;;4958064;28;20567;-64
2023/07/09 10:56:22;;;;;;;12.10;4.68;;;33.90;35.10;;;;;;4960942;28;20051;-65
2023/07/09 10:59:26;;;;;;;11.45;4.78;;;33.80;38.10;;;;;;4954519;29;20099;-64
2023/07/09 11:01:59;;;;;;;9.57;4.50;;;33.40;35.80;;;;;;4954712;29;20050;-64
2023/07/09 11:04:39;;;;;;;13.30;5.57;;;32.90;37.50;;;;;;4954762;29;20110;-64
2023/07/09 11:07:11;;;;;;;8.35;5.20;;;33.30;44.20;;;;;;4964177;28;20043;-65
2023/07/09 11:09:42;;;;;;;9.05;5.32;;;33.50;40.30;;;;;;5054961;28;20029;-65
2023/07/09 11:12:17;;;;;;;8.65;5.28;;;32.30;34.80;;;;;;5054785;28;20032;-64
2023/07/09 11:14:49;;;;;;;7.60;4.80;;;32.70;34.90;;;;;;5054333;28;20104;-64
2023/07/09 11:17:18;;;;;;;7.82;3.97;;;32.80;36.40;;;;;;5055002;28;20028;-64
2023/07/09 11:20:15;;;;;;;5.50;4.30;;;33.40;35.90;;;;;;5054796;28;20069;-65
2023/07/09 11:22:41;;;;;;;8.85;5.10;;;33.60;36.60;;;;;;5054857;28;20032;-64
2023/07/09 11:25:11;;;;;;;6.22;4.38;;;33.30;34.70;;;;;;5054719;28;20047;-65
2023/07/09 11:28:03;;;;;;;6.45;4.70;;;33.70;39.30;;;;;;5054606;28;20052;-65
2023/07/09 11:30:29;;;;;;;9.90;4.97;;;33.60;38.50;;;;;;5054851;28;20103;-65
2023/07/09 11:33:04;;;;;;;6.68;4.45;;;33.60;39.20;;;;;;5054541;28;20553;-64
2023/07/09 11:35:48;;;;;;;4.20;3.75;;;33.20;37.60;;;;;;5054611;28;20029;-65
2023/07/09 11:38:20;;;;;;;8.10;4.38;;;33.80;34.40;;;;;;5054567;28;20033;-65
2023/07/09 11:40:47;;;;;;;5.93;4.13;;;34.10;36.70;;;;;;5054745;28;20033;-64
2023/07/09 11:43:46;;;;;;;6.70;4.88;;;34.10;34.20;;;;;;5054336;28;20035;-64
2023/07/09 11:46:17;;;;;;;8.15;4.45;;;34.50;35.40;;;;;;5054472;28;20056;-64
2023/07/09 11:48:45;;;;;;;10.88;4.47;;;35.00;35.50;;;;;;5054190;28;20120;-64
2023/07/09 11:51:20;;;;;;;6.78;3.92;;;35.60;35.20;;;;;;5054516;28;20033;-64
2023/07/09 11:53:52;;;;;;;7.70;4.35;;;35.00;33.00;;;;;;5054578;28;20058;-65
2023/07/09 11:56:20;;;;;;;9.32;5.10;;;35.30;33.50;;;;;;5068612;28;20040;-64
2023/07/09 11:58:57;;;;;;;7.03;4.38;;;35.70;31.90;;;;;;5056197;28;20174;-64
2023/07/09 12:01:36;;;;;;;6.00;4.18;;;35.90;29.20;;;;;;5074396;28;20028;-64
2023/07/09 12:04:04;;;;;;;8.25;3.95;;;35.70;29.80;;;;;;5074160;28;20031;-65
2023/07/09 12:06:33;;;;;;;6.55;4.38;;;34.40;29.30;;;;;;5074389;28;20033;-65
2023/07/09 12:08:59;;;;;;;5.97;3.85;;;33.70;30.00;;;;;;5056318;28;20059;-65
2023/07/09 12:11:31;;;;;;;4.72;3.78;;;32.90;32.40;;;;;;5074048;28;20533;-65
2023/07/09 12:14:12;;;;;;;6.97;4.15;;;33.10;32.10;;;;;;5074399;28;20138;-64
2023/07/09 12:16:40;;;;;;;4.93;3.65;;;34.00;32.40;;;;;;5073920;28;20070;-64
2023/07/09 12:19:06;;;;;;;11.45;4.78;;;34.50;33.40;;;;;;5074239;28;20122;-65
2023/07/09 12:21:37;;;;;;;8.32;4.28;;;34.60;29.90;;;;;;5056177;28;20170;-64
2023/07/09 12:24:15;;;;;;;10.25;4.00;;;34.20;33.40;;;;;;5074332;28;20185;-64
2023/07/09 12:26:42;;;;;;;9.13;4.70;;;34.40;31.20;;;;;;5078058;28;20034;-64
2023/07/09 12:29:09;;;;;;;8.27;4.95;;;34.60;37.30;;;;;;5043188;28;20047;-64
2023/07/09 12:31:35;;;;;;;6.93;4.75;;;34.80;31.50;;;;;;5077900;28;20055;-64
2023/07/09 12:34:01;;;;;;;7.18;4.25;;;34.90;32.20;;;;;;5078009;28;20448;-64
2023/07/09 12:36:28;;;;;;;6.40;4.43;;;34.90;31.50;;;;;;5077832;28;20021;-64
2023/07/09 12:39:05;;;;;;;8.63;4.25;;;35.00;29.10;;;;;;5077761;28;20098;-65
2023/07/09 12:41:40;;;;;;;4.80;3.95;;;34.80;31.00;;;;;;5077692;28;20489;-64
2023/07/09 12:44:14;;;;;;;7.10;3.95;;;34.00;30.40;;;;;;5077740;28;20029;-65
2023/07/09 12:46:40;;;;;;;8.43;4.82;;;33.80;33.30;;;;;;5077605;28;20087;-64
2023/07/09 12:49:06;;;;;;;5.13;3.85;;;33.10;36.70;;;;;;5077457;28;20029;-65
2023/07/09 12:51:33;;;;;;;6.60;3.72;;;33.00;36.80;;;;;;5077456;28;20021;-65
2023/07/09 12:54:15;;;;;;;5.97;3.58;;;33.10;38.50;;;;;;5077471;28;20024;-64